Time;durP1;ratioP1;P1;durP2;ratioP2;P2;SDS_P1;SDS_P2;PMS_P1;PMS_P2;Temp;Humidity;BMP_temperature;BMP_pressure;BME280_temperature;BME280_humidity;BME280_pressure;Samples;Min_cycle;Max_cycle;Signal;HPM_P1;HPM_P2
2023/07/08 00:00:11;;;;;;;7.30;4.30;;;17.30;99.90;;;;;;7386759;19;20640;-60
2023/07/08 00:02:38;;;;;;;6.80;4.45;;;17.30;99.90;;;;;;7390029;19;20021;-60
2023/07/08 00:05:05;;;;;;;9.57;4.90;;;17.20;99.90;;;;;;7387214;19;20014;-60
2023/07/08 00:07:31;;;;;;;7.10;4.63;;;17.20;99.90;;;;;;7386816;19;20014;-60
2023/07/08 00:09:58;;;;;;;6.35;4.82;;;17.10;99.90;;;;;;7384518;19;20022;-61
2023/07/08 00:12:24;;;;;;;8.98;5.70;;;17.10;99.90;;;;;;7396112;19;20019;-63
2023/07/08 00:14:50;;;;;;;9.77;5.20;;;17.00;99.90;;;;;;7401789;19;20350;-63
2023/07/08 00:17:21;;;;;;;9.98;6.57;;;17.00;99.90;;;;;;7398836;19;20014;-62
2023/07/08 00:19:47;;;;;;;8.57;5.40;;;17.00;99.90;;;;;;7397895;19;20014;-63
2023/07/08 00:22:38;;;;;;;7.13;5.35;;;16.90;99.90;;;;;;7399966;19;20014;-63
2023/07/08 00:25:11;;;;;;;7.18;5.35;;;16.90;99.90;;;;;;7403222;19;20011;-62
2023/07/08 00:27:42;;;;;;;8.85;4.90;;;16.90;99.90;;;;;;7401322;19;20480;-62
2023/07/08 00:30:18;;;;;;;6.57;4.72;;;16.80;99.90;;;;;;7400184;19;20021;-62
2023/07/08 00:32:47;;;;;;;7.82;5.28;;;16.80;99.90;;;;;;7401327;19;20042;-63
2023/07/08 00:35:13;;;;;;;8.45;5.13;;;16.80;99.90;;;;;;7400412;19;20331;-63
2023/07/08 00:38:01;;;;;;;7.38;5.35;;;16.80;99.90;;;;;;7397823;19;20014;-63
2023/07/08 00:40:31;;;;;;;9.32;5.50;;;16.80;99.90;;;;;;7396262;19;20501;-62
2023/07/08 00:43:11;;;;;;;7.95;5.60;;;16.70;99.90;;;;;;7403792;19;20007;-63
2023/07/08 00:45:47;;;;;;;8.32;5.47;;;16.70;99.90;;;;;;7391358;19;20017;-61
2023/07/08 00:48:30;;;;;;;9.35;5.88;;;16.60;99.90;;;;;;7386887;19;20032;-61
2023/07/08 00:50:56;;;;;;;8.32;5.13;;;16.60;99.90;;;;;;7388649;19;20018;-60
2023/07/08 00:53:33;;;;;;;9.55;6.10;;;16.60;99.90;;;;;;7388025;19;20014;-61
2023/07/08 00:56:16;;;;;;;8.77;5.15;;;16.60;99.90;;;;;;7391067;19;20039;-62
2023/07/08 00:58:48;;;;;;;9.32;5.53;;;16.50;99.90;;;;;;7390121;19;20390;-62
2023/07/08 01:01:15;;;;;;;9.75;5.53;;;16.50;99.90;;;;;;7383460;19;20022;-62
2023/07/08 01:04:02;;;;;;;8.77;5.85;;;16.50;99.90;;;;;;7390281;19;20019;-62
2023/07/08 01:06:34;;;;;;;7.20;5.82;;;16.50;99.90;;;;;;7390432;19;20022;-60
2023/07/08 01:09:05;;;;;;;7.50;6.10;;;16.50;99.90;;;;;;7388729;19;20022;-60
2023/07/08 01:11:33;;;;;;;8.82;6.03;;;16.40;99.90;;;;;;7388312;19;20546;-61
2023/07/08 01:14:03;;;;;;;8.07;5.47;;;16.40;99.90;;;;;;7382534;19;20641;-60
2023/07/08 01:16:33;;;;;;;7.50;5.10;;;16.40;99.90;;;;;;7385724;19;20031;-60
2023/07/08 01:19:02;;;;;;;6.40;5.60;;;16.30;99.90;;;;;;7392320;19;20103;-60
2023/07/08 01:21:36;;;;;;;9.65;6.07;;;16.30;99.90;;;;;;7388739;19;20484;-60
2023/07/08 01:24:09;;;;;;;8.57;5.75;;;16.30;99.90;;;;;;7390422;19;20578;-61
2023/07/08 01:26:41;;;;;;;9.88;6.30;;;16.30;99.90;;;;;;7389877;19;20019;-60
2023/07/08 01:29:09;;;;;;;9.27;6.43;;;16.30;99.90;;;;;;7387856;19;20482;-61
2023/07/08 01:31:35;;;;;;;9.60;6.32;;;16.20;99.90;;;;;;7386820;19;20069;-61
2023/07/08 01:34:02;;;;;;;8.57;7.18;;;16.20;99.90;;;;;;7387519;19;20025;-61
2023/07/08 01:36:38;;;;;;;10.48;6.97;;;16.20;99.90;;;;;;7387507;19;20014;-61
2023/07/08 01:39:05;;;;;;;7.88;5.53;;;16.20;99.90;;;;;;7387629;19;20608;-60
2023/07/08 01:41:31;;;;;;;10.23;6.43;;;16.20;99.90;;;;;;7387766;19;20034;-62
2023/07/08 01:44:02;;;;;;;9.60;5.78;;;16.10;99.90;;;;;;7395082;19;20014;-63
2023/07/08 01:46:31;;;;;;;8.38;6.80;;;16.10;99.90;;;;;;7397674;19;20686;-62
2023/07/08 01:49:01;;;;;;;10.07;6.68;;;16.10;99.90;;;;;;7390310;19;20566;-61
2023/07/08 01:51:27;;;;;;;9.32;7.13;;;16.10;99.90;;;;;;7388161;19;20014;-60
2023/07/08 01:53:54;;;;;;;9.32;6.65;;;16.10;99.90;;;;;;7382060;19;20025;-61
2023/07/08 01:56:20;;;;;;;11.73;7.72;;;16.10;99.90;;;;;;7379942;19;20043;-61
2023/07/08 01:58:47;;;;;;;12.30;6.20;;;16.00;99.90;;;;;;7380676;19;20097;-60
2023/07/08 02:01:14;;;;;;;8.50;6.40;;;16.00;99.90;;;;;;7384565;19;20018;-61
2023/07/08 02:03:41;;;;;;;8.75;6.57;;;16.00;99.90;;;;;;7385540;19;20022;-61
2023/07/08 02:06:08;;;;;;;13.88;6.95;;;16.00;99.90;;;;;;7389979;19;20011;-63
2023/07/08 02:08:39;;;;;;;8.35;6.47;;;16.00;99.90;;;;;;7399291;19;20014;-62
2023/07/08 02:11:11;;;;;;;8.55;6.38;;;15.90;99.90;;;;;;7395095;19;20020;-62
2023/07/08 02:13:37;;;;;;;8.18;6.22;;;15.90;99.90;;;;;;7394134;19;20010;-63
2023/07/08 02:16:06;;;;;;;7.53;6.57;;;15.90;99.90;;;;;;7394022;19;20018;-63
2023/07/08 02:18:32;;;;;;;11.00;6.75;;;15.80;99.90;;;;;;7391164;19;20006;-62
2023/07/08 02:21:03;;;;;;;10.98;6.90;;;15.80;99.90;;;;;;7395486;19;20019;-62
2023/07/08 02:23:32;;;;;;;10.73;7.45;;;15.80;99.90;;;;;;7394278;19;20477;-62
2023/07/08 02:26:05;;;;;;;9.27;6.22;;;15.70;99.90;;;;;;7395873;19;20010;-62
2023/07/08 02:28:31;;;;;;;8.82;6.72;;;15.70;99.90;;;;;;7385852;19;20010;-61
2023/07/08 02:31:02;;;;;;;13.23;7.10;;;15.70;99.90;;;;;;7385045;19;20082;-61
2023/07/08 02:33:35;;;;;;;11.02;6.93;;;15.70;99.90;;;;;;7382855;19;20466;-61
2023/07/08 02:36:04;;;;;;;9.48;7.45;;;15.70;99.90;;;;;;7373932;19;20481;-61
2023/07/08 02:38:31;;;;;;;8.15;6.68;;;15.70;99.90;;;;;;7380002;19;20339;-61
2023/07/08 02:40:57;;;;;;;9.73;6.30;;;15.70;99.90;;;;;;7374680;19;20022;-61
2023/07/08 02:43:24;;;;;;;9.63;7.13;;;15.70;99.90;;;;;;7382709;19;20022;-61
2023/07/08 02:45:51;;;;;;;8.73;7.03;;;15.60;99.90;;;;;;7378741;19;20402;-61
2023/07/08 02:48:18;;;;;;;9.52;6.82;;;15.60;99.90;;;;;;7375801;19;20117;-61
2023/07/08 02:50:45;;;;;;;10.50;7.03;;;15.60;99.90;;;;;;7378024;19;20482;-61
2023/07/08 02:53:12;;;;;;;10.90;6.90;;;15.60;99.90;;;;;;7376645;19;20018;-61
2023/07/08 02:55:42;;;;;;;8.50;7.28;;;15.60;99.90;;;;;;7381544;19;20078;-61
2023/07/08 02:58:12;;;;;;;10.32;6.75;;;15.60;99.90;;;;;;7383344;19;20361;-61
2023/07/08 03:00:39;;;;;;;12.13;6.47;;;15.60;99.90;;;;;;7383628;19;20698;-61
2023/07/08 03:03:05;;;;;;;8.15;6.65;;;15.50;99.90;;;;;;7383513;19;20462;-61
2023/07/08 03:05:32;;;;;;;11.48;7.78;;;15.60;99.90;;;;;;7381977;19;20014;-61
2023/07/08 03:07:59;;;;;;;9.23;7.40;;;15.50;99.90;;;;;;7382619;19;20024;-61
2023/07/08 03:10:26;;;;;;;9.25;6.88;;;15.50;99.90;;;;;;7383329;19;20018;-61
2023/07/08 03:12:52;;;;;;;9.07;7.15;;;15.50;99.90;;;;;;7382818;19;20038;-61
2023/07/08 03:15:19;;;;;;;11.60;6.85;;;15.50;99.90;;;;;;7383774;19;20023;-61
2023/07/08 03:17:46;;;;;;;11.57;7.10;;;15.40;99.90;;;;;;7383709;19;20427;-61
2023/07/08 03:20:13;;;;;;;10.02;7.35;;;15.40;99.90;;;;;;7383159;19;20026;-61
2023/07/08 03:22:40;;;;;;;8.35;6.75;;;15.40;99.90;;;;;;7380356;19;20021;-61
2023/07/08 03:25:07;;;;;;;9.27;7.43;;;15.40;99.90;;;;;;7381311;19;20019;-61
2023/07/08 03:27:33;;;;;;;10.43;7.88;;;15.40;99.90;;;;;;7383151;19;20033;-61
2023/07/08 03:30:00;;;;;;;8.20;7.22;;;15.40;99.90;;;;;;7381773;19;20025;-62
2023/07/08 03:32:32;;;;;;;9.90;7.53;;;15.40;99.90;;;;;;7379843;19;20056;-63
2023/07/08 03:34:58;;;;;;;9.20;7.90;;;15.30;99.90;;;;;;7394548;19;20354;-63
2023/07/08 03:37:25;;;;;;;11.55;7.65;;;15.30;99.90;;;;;;7385119;19;20014;-61
2023/07/08 03:39:51;;;;;;;10.60;7.32;;;15.30;99.90;;;;;;7396591;19;20777;-65
2023/07/08 03:42:17;;;;;;;10.70;7.68;;;15.30;99.90;;;;;;7391870;19;20023;-61
2023/07/08 03:44:43;;;;;;;9.43;7.72;;;15.30;99.90;;;;;;7388358;19;20026;-61
2023/07/08 03:47:11;;;;;;;13.23;8.45;;;15.30;99.90;;;;;;7388912;19;20018;-62
2023/07/08 03:49:37;;;;;;;7.82;7.00;;;15.30;99.90;;;;;;7391327;19;20094;-61
2023/07/08 03:52:04;;;;;;;8.63;7.70;;;15.30;99.90;;;;;;7389189;19;20500;-61
2023/07/08 03:54:30;;;;;;;12.00;8.00;;;15.30;99.90;;;;;;7388422;19;20086;-61
2023/07/08 03:56:58;;;;;;;10.45;7.43;;;15.30;99.90;;;;;;7390601;19;20014;-61
2023/07/08 03:59:27;;;;;;;8.80;7.15;;;15.30;99.90;;;;;;7390276;19;20018;-61
2023/07/08 04:01:56;;;;;;;8.50;7.32;;;15.30;99.90;;;;;;7389850;19;20014;-61
2023/07/08 04:04:24;;;;;;;10.00;7.53;;;15.30;99.90;;;;;;7389806;19;20459;-61
2023/07/08 04:06:51;;;;;;;10.23;7.78;;;15.30;99.90;;;;;;7389588;19;20022;-61
2023/07/08 04:09:17;;;;;;;10.88;7.50;;;15.30;99.90;;;;;;7390088;19;20536;-62
2023/07/08 04:11:44;;;;;;;9.32;7.10;;;15.30;99.90;;;;;;7390256;19;20508;-61
2023/07/08 04:14:10;;;;;;;10.02;7.10;;;15.40;99.90;;;;;;7391932;19;20014;-61
2023/07/08 04:16:45;;;;;;;11.13;7.63;;;15.40;99.90;;;;;;7393207;19;20022;-61
2023/07/08 04:19:14;;;;;;;10.27;7.45;;;15.40;99.90;;;;;;7391923;19;20027;-61
2023/07/08 04:21:42;;;;;;;9.40;7.30;;;15.40;99.90;;;;;;7391238;19;20101;-61
2023/07/08 04:24:10;;;;;;;9.90;7.45;;;15.50;99.90;;;;;;7393152;19;20014;-61
2023/07/08 04:26:39;;;;;;;11.23;7.57;;;15.50;99.90;;;;;;7391518;19;20014;-61
2023/07/08 04:29:20;;;;;;;9.90;7.35;;;15.60;99.90;;;;;;7388759;19;20015;-61
2023/07/08 04:31:48;;;;;;;9.50;7.97;;;15.60;99.90;;;;;;7389558;19;20014;-61
2023/07/08 04:34:16;;;;;;;9.98;7.47;;;15.60;99.90;;;;;;7389535;19;20014;-61
2023/07/08 04:36:43;;;;;;;13.50;7.75;;;15.70;99.90;;;;;;7391403;19;20017;-61
2023/07/08 04:39:11;;;;;;;8.80;7.60;;;15.70;99.90;;;;;;7393373;19;20092;-61
2023/07/08 04:41:40;;;;;;;9.85;7.38;;;15.80;99.90;;;;;;7387818;19;20055;-61
2023/07/08 04:44:07;;;;;;;8.70;6.70;;;15.80;99.90;;;;;;7397351;19;20010;-63
2023/07/08 04:46:50;;;;;;;12.02;7.90;;;15.90;99.90;;;;;;7400038;19;20023;-62
2023/07/08 04:49:24;;;;;;;10.13;7.35;;;15.90;99.90;;;;;;7401017;19;20014;-62
2023/07/08 04:51:51;;;;;;;10.15;7.00;;;16.00;99.90;;;;;;7399732;19;20007;-63
2023/07/08 04:54:18;;;;;;;10.27;7.10;;;16.10;99.90;;;;;;7401546;19;20006;-63
2023/07/08 04:56:48;;;;;;;9.43;6.65;;;16.20;99.90;;;;;;7400999;19;20032;-63
2023/07/08 04:59:20;;;;;;;9.95;7.10;;;16.30;99.90;;;;;;7398204;19;20007;-62
2023/07/08 05:01:47;;;;;;;9.48;6.95;;;16.40;99.90;;;;;;7401064;19;20481;-63
2023/07/08 05:04:15;;;;;;;7.30;5.93;;;16.40;99.90;;;;;;7400443;19;20011;-63
2023/07/08 05:06:42;;;;;;;10.48;6.45;;;16.50;99.90;;;;;;7388504;19;20492;-61
2023/07/08 05:09:10;;;;;;;8.73;6.25;;;16.60;99.90;;;;;;7388039;19;20015;-61
2023/07/08 05:11:36;;;;;;;8.73;6.13;;;16.80;99.90;;;;;;7389733;19;20442;-61
2023/07/08 05:14:07;;;;;;;10.50;6.25;;;17.10;99.90;;;;;;7394922;19;20361;-63
2023/07/08 05:16:37;;;;;;;9.60;5.22;;;17.40;99.90;;;;;;7400487;19;20027;-64
2023/07/08 05:19:04;;;;;;;11.50;6.20;;;17.80;99.90;;;;;;7392065;19;20093;-61
2023/07/08 05:21:33;;;;;;;8.38;5.60;;;18.10;99.90;;;;;;7388900;19;20037;-61
2023/07/08 05:24:05;;;;;;;9.65;5.28;;;18.30;99.90;;;;;;7386623;19;20015;-61
2023/07/08 05:26:32;;;;;;;10.40;5.68;;;18.50;99.90;;;;;;7389796;19;20473;-61
2023/07/08 05:28:58;;;;;;;9.45;5.20;;;18.80;99.90;;;;;;7394127;19;20472;-63
2023/07/08 05:31:25;;;;;;;7.40;5.20;;;19.00;99.90;;;;;;7401300;19;20011;-63
2023/07/08 05:33:57;;;;;;;7.32;4.80;;;19.20;99.90;;;;;;7397873;19;20014;-63
2023/07/08 05:36:24;;;;;;;9.50;5.22;;;19.40;99.90;;;;;;7396963;19;20006;-63
2023/07/08 05:38:50;;;;;;;6.82;5.43;;;19.50;99.90;;;;;;7397091;19;20037;-63
2023/07/08 05:41:36;;;;;;;6.72;5.10;;;19.70;99.90;;;;;;7398174;19;20019;-62
2023/07/08 05:44:07;;;;;;;15.35;4.75;;;19.70;99.90;;;;;;7398088;19;20348;-63
2023/07/08 05:46:33;;;;;;;7.28;4.43;;;19.80;99.90;;;;;;7397583;19;20010;-63
2023/07/08 05:49:03;;;;;;;9.55;4.88;;;20.10;99.90;;;;;;7399221;19;20031;-63
2023/07/08 05:51:29;;;;;;;11.10;6.00;;;20.30;99.90;;;;;;7391644;19;20033;-63
2023/07/08 05:53:56;;;;;;;14.88;6.63;;;20.60;99.90;;;;;;7398077;19;20108;-63
2023/07/08 05:56:24;;;;;;;6.40;4.88;;;20.80;99.90;;;;;;7397536;19;20107;-63
2023/07/08 05:58:50;;;;;;;7.20;4.63;;;20.90;99.90;;;;;;7399509;19;20026;-63
2023/07/08 06:01:16;;;;;;;6.63;4.75;;;20.90;99.90;;;;;;7393530;19;20012;-63
2023/07/08 06:03:49;;;;;;;7.38;6.10;;;21.00;99.90;;;;;;7394544;19;20014;-63
2023/07/08 06:06:16;;;;;;;8.30;5.63;;;21.20;99.90;;;;;;7391569;19;20369;-61
2023/07/08 06:08:43;;;;;;;5.07;4.30;;;21.40;99.90;;;;;;7383142;19;20018;-62
2023/07/08 06:11:09;;;;;;;7.07;5.82;;;21.50;99.90;;;;;;7385412;19;20057;-61
2023/07/08 06:13:35;;;;;;;5.57;4.03;;;21.60;99.90;;;;;;7382874;19;20031;-60
2023/07/08 06:16:01;;;;;;;6.80;3.78;;;21.70;99.90;;;;;;7382284;19;20015;-61
2023/07/08 06:18:27;;;;;;;9.43;6.18;;;21.70;99.90;;;;;;7384362;19;20016;-60
2023/07/08 06:20:55;;;;;;;6.72;3.92;;;22.00;99.90;;;;;;7383857;19;20010;-60
2023/07/08 06:23:22;;;;;;;8.15;6.22;;;21.80;99.90;;;;;;7385082;19;20007;-60
2023/07/08 06:25:49;;;;;;;5.32;3.92;;;22.00;99.90;;;;;;7383098;19;20530;-61
2023/07/08 06:28:16;;;;;;;5.85;3.90;;;22.00;99.90;;;;;;7385144;19;20022;-61
2023/07/08 06:30:43;;;;;;;5.97;4.78;;;22.10;99.90;;;;;;7383915;19;20018;-61
2023/07/08 06:33:12;;;;;;;7.95;4.85;;;22.30;99.90;;;;;;7381241;19;20022;-61
2023/07/08 06:35:39;;;;;;;9.48;4.90;;;22.40;99.90;;;;;;7379836;19;20018;-61
2023/07/08 06:38:06;;;;;;;8.30;5.05;;;22.50;99.90;;;;;;7385602;19;20184;-61
2023/07/08 06:40:34;;;;;;;6.88;4.65;;;22.50;99.90;;;;;;7382641;19;20387;-61
2023/07/08 06:43:02;;;;;;;11.40;8.23;;;22.80;99.90;;;;;;7386480;19;20505;-60
2023/07/08 06:45:37;;;;;;;7.22;4.78;;;22.70;99.90;;;;;;7382287;19;20056;-61
2023/07/08 06:48:03;;;;;;;7.00;4.13;;;22.70;99.90;;;;;;7385998;19;20014;-61
2023/07/08 06:50:32;;;;;;;10.98;4.38;;;23.00;99.90;;;;;;7382043;19;20413;-61
2023/07/08 06:52:58;;;;;;;7.53;4.55;;;23.10;99.90;;;;;;7377792;19;20038;-62
2023/07/08 06:55:24;;;;;;;10.57;8.95;;;23.30;99.90;;;;;;7390007;19;20481;-61
2023/07/08 06:57:51;;;;;;;21.67;19.40;;;23.50;99.90;;;;;;7389103;19;20018;-61
2023/07/08 07:00:18;;;;;;;13.80;9.63;;;23.50;99.90;;;;;;7387634;19;20776;-62
2023/07/08 07:02:44;;;;;;;19.67;17.48;;;23.70;99.90;;;;;;7391793;19;20474;-62
2023/07/08 07:05:10;;;;;;;8.75;5.55;;;23.90;99.90;;;;;;7388488;19;20023;-61
2023/07/08 07:07:40;;;;;;;7.82;4.22;;;24.10;99.90;;;;;;7384091;19;20019;-61
2023/07/08 07:10:07;;;;;;;5.97;4.20;;;24.30;99.90;;;;;;7385092;19;20302;-62
2023/07/08 07:12:34;;;;;;;5.65;3.35;;;24.30;99.90;;;;;;7386109;19;20067;-61
2023/07/08 07:15:00;;;;;;;5.43;3.83;;;24.50;99.90;;;;;;7387862;19;20035;-62
2023/07/08 07:17:27;;;;;;;7.72;3.42;;;24.60;99.90;;;;;;7401423;19;20056;-63
2023/07/08 07:19:54;;;;;;;20.02;17.92;;;24.80;99.90;;;;;;7402632;19;20006;-63
2023/07/08 07:22:22;;;;;;;7.53;4.35;;;24.90;99.90;;;;;;7396554;19;20132;-63
2023/07/08 07:24:49;;;;;;;6.32;3.42;;;25.20;99.90;;;;;;7395237;19;20037;-63
2023/07/08 07:27:15;;;;;;;6.45;3.63;;;25.40;98.40;;;;;;7399964;19;20021;-63
2023/07/08 07:29:47;;;;;;;22.50;20.08;;;25.60;97.50;;;;;;7400677;19;20010;-63
2023/07/08 07:32:14;;;;;;;8.00;4.82;;;25.70;96.90;;;;;;7399872;19;20014;-63
2023/07/08 07:34:41;;;;;;;10.50;4.30;;;25.70;96.50;;;;;;7399009;19;20018;-63
2023/07/08 07:37:16;;;;;;;8.82;3.40;;;25.90;96.50;;;;;;7396561;19;20554;-63
2023/07/08 07:39:44;;;;;;;7.75;5.85;;;26.10;95.40;;;;;;7402802;19;20014;-63
2023/07/08 07:42:11;;;;;;;4.68;3.03;;;26.10;95.00;;;;;;7397813;19;20038;-62
2023/07/08 07:44:40;;;;;;;7.78;6.15;;;26.10;93.90;;;;;;7403678;19;20014;-63
2023/07/08 07:47:08;;;;;;;24.73;22.42;;;26.30;94.60;;;;;;7394759;19;20023;-61
2023/07/08 07:49:35;;;;;;;8.10;3.80;;;26.40;93.60;;;;;;7395677;19;20339;-63
2023/07/08 07:52:01;;;;;;;6.70;3.33;;;26.70;92.60;;;;;;7400634;19;20422;-64
2023/07/08 07:54:28;;;;;;;6.32;3.72;;;26.70;91.20;;;;;;7401553;19;20027;-63
2023/07/08 07:56:54;;;;;;;5.22;2.90;;;26.80;88.90;;;;;;7399717;19;20010;-63
2023/07/08 07:59:22;;;;;;;8.90;3.85;;;27.00;88.60;;;;;;7399637;19;20011;-63
2023/07/08 08:01:49;;;;;;;6.32;3.83;;;27.00;87.20;;;;;;7399297;19;20114;-64
2023/07/08 08:04:15;;;;;;;4.28;2.90;;;27.10;86.00;;;;;;7392382;19;20042;-64
2023/07/08 08:06:41;;;;;;;7.97;3.25;;;27.30;85.10;;;;;;7400807;19;20373;-63
2023/07/08 08:09:07;;;;;;;99.03;90.25;;;27.10;82.80;;;;;;7384003;19;20026;-61
2023/07/08 08:11:34;;;;;;;13.82;12.20;;;27.30;81.40;;;;;;7387256;19;20019;-62
2023/07/08 08:14:03;;;;;;;24.63;22.10;;;27.40;80.90;;;;;;7392215;19;20011;-61
2023/07/08 08:16:30;;;;;;;5.20;3.60;;;27.60;81.30;;;;;;7394658;19;20019;-62
2023/07/08 08:18:56;;;;;;;8.90;6.53;;;27.90;81.60;;;;;;7388604;19;20757;-62
2023/07/08 08:21:23;;;;;;;10.52;9.05;;;27.90;76.80;;;;;;7385515;19;20011;-62
2023/07/08 08:23:49;;;;;;;5.85;4.00;;;27.90;77.00;;;;;;7387161;19;20031;-62
2023/07/08 08:26:15;;;;;;;5.88;3.33;;;27.70;76.10;;;;;;7386431;19;20074;-62
2023/07/08 08:28:42;;;;;;;7.60;4.40;;;27.90;76.10;;;;;;7385070;19;20014;-63
2023/07/08 08:31:08;;;;;;;11.32;9.75;;;28.10;76.40;;;;;;7382249;19;20082;-62
2023/07/08 08:33:35;;;;;;;6.25;3.25;;;28.20;76.40;;;;;;7385331;19;20353;-62
2023/07/08 08:36:01;;;;;;;6.20;3.58;;;28.60;73.50;;;;;;7383363;19;20018;-62
2023/07/08 08:38:28;;;;;;;6.03;3.55;;;28.60;74.40;;;;;;7381768;19;20018;-62
2023/07/08 08:40:55;;;;;;;5.68;3.75;;;28.80;73.70;;;;;;7380916;19;20082;-62
2023/07/08 08:43:34;;;;;;;5.47;3.55;;;28.90;72.00;;;;;;7395765;19;20411;-62
2023/07/08 08:46:05;;;;;;;56.75;51.58;;;28.70;69.70;;;;;;7390434;19;20539;-62
2023/07/08 08:48:41;;;;;;;19.42;17.38;;;28.90;70.60;;;;;;7390014;19;20025;-61
2023/07/08 08:51:15;;;;;;;7.50;4.85;;;28.90;70.50;;;;;;7393338;19;20489;-61
2023/07/08 08:53:45;;;;;;;9.27;8.30;;;28.90;68.40;;;;;;7389169;19;20023;-62
2023/07/08 08:56:23;;;;;;;10.52;9.45;;;29.10;69.30;;;;;;7381489;19;20040;-61
2023/07/08 08:59:03;;;;;;;8.27;5.57;;;29.30;69.90;;;;;;7389451;19;20019;-61
2023/07/08 09:01:30;;;;;;;6.25;3.22;;;29.50;68.20;;;;;;7386323;19;20618;-63
2023/07/08 09:04:16;;;;;;;5.05;3.50;;;29.40;68.10;;;;;;7390783;19;20026;-63
2023/07/08 09:06:43;;;;;;;7.68;3.50;;;29.40;68.70;;;;;;7390421;19;20010;-63
2023/07/08 09:09:20;;;;;;;5.82;3.75;;;29.70;67.80;;;;;;7391635;19;20038;-63
2023/07/08 09:12:00;;;;;;;6.38;4.13;;;30.00;68.00;;;;;;7392676;19;20018;-64
2023/07/08 09:14:28;;;;;;;8.05;3.30;;;30.40;65.50;;;;;;7392385;19;20047;-63
2023/07/08 09:17:19;;;;;;;5.03;3.15;;;30.50;64.00;;;;;;7387477;19;20014;-63
2023/07/08 09:20:05;;;;;;;6.63;3.38;;;30.30;62.90;;;;;;7391578;19;20019;-63
2023/07/08 09:22:46;;;;;;;5.00;3.45;;;30.80;65.60;;;;;;7387897;19;20011;-63
2023/07/08 09:25:15;;;;;;;5.50;3.10;;;30.90;62.90;;;;;;7389392;19;20019;-63
2023/07/08 09:27:42;;;;;;;5.75;2.85;;;30.70;62.20;;;;;;7389450;19;20482;-62
2023/07/08 09:30:28;;;;;;;5.57;3.88;;;31.20;62.80;;;;;;7388613;19;20022;-62
2023/07/08 09:33:01;;;;;;;5.65;3.42;;;31.40;62.80;;;;;;7375835;19;20014;-64
2023/07/08 09:35:38;;;;;;;5.85;3.08;;;31.50;63.10;;;;;;7374339;19;20029;-64
2023/07/08 09:38:20;;;;;;;20.15;18.10;;;31.60;60.00;;;;;;7371856;19;20133;-65
2023/07/08 09:40:54;;;;;;;12.93;11.63;;;31.80;60.60;;;;;;7371034;19;20436;-63
2023/07/08 09:43:37;;;;;;;8.45;7.35;;;31.90;58.90;;;;;;7374033;19;20022;-63
2023/07/08 09:46:04;;;;;;;7.95;6.05;;;32.00;57.70;;;;;;7372393;19;20337;-64
2023/07/08 09:48:36;;;;;;;10.48;7.18;;;32.10;57.70;;;;;;7370507;19;20017;-64
2023/07/08 09:51:04;;;;;;;8.52;5.63;;;32.20;57.80;;;;;;7373259;19;20019;-64
2023/07/08 09:53:30;;;;;;;7.75;4.88;;;32.20;57.10;;;;;;7371063;19;20023;-64
2023/07/08 09:55:58;;;;;;;7.25;5.18;;;32.20;56.20;;;;;;7374328;19;20015;-61
2023/07/08 09:58:42;;;;;;;6.00;5.40;;;32.40;56.30;;;;;;7372106;19;20497;-60
2023/07/08 10:01:23;;;;;;;8.75;4.40;;;32.60;55.70;;;;;;7372543;19;20014;-65
2023/07/08 10:03:49;;;;;;;5.15;3.53;;;32.70;55.70;;;;;;7371240;19;20090;-61
2023/07/08 10:06:43;;;;;;;6.82;4.47;;;32.90;55.50;;;;;;7374967;19;20022;-60
2023/07/08 10:09:18;;;;;;;22.63;20.48;;;33.00;54.40;;;;;;7371977;19;20019;-60
2023/07/08 10:11:50;;;;;;;33.80;30.27;;;33.20;56.00;;;;;;7370174;19;20047;-60
2023/07/08 10:14:39;;;;;;;13.98;12.63;;;33.50;55.90;;;;;;7369138;19;20433;-60
2023/07/08 10:17:05;;;;;;;6.20;3.70;;;33.40;54.00;;;;;;7368870;19;20033;-60
2023/07/08 10:19:31;;;;;;;12.60;9.07;;;33.30;53.10;;;;;;7372401;19;20029;-59
2023/07/08 10:22:10;;;;;;;5.72;3.10;;;33.10;54.50;;;;;;7354458;19;20035;-60
2023/07/08 10:24:57;;;;;;;6.90;4.45;;;33.40;52.90;;;;;;7363439;19;20078;-59
2023/07/08 10:27:47;;;;;;;6.70;4.72;;;33.50;51.70;;;;;;7369241;19;20006;-60
2023/07/08 10:30:34;;;;;;;11.95;10.73;;;33.50;51.70;;;;;;7363704;19;20632;-60
2023/07/08 10:33:17;;;;;;;6.30;5.28;;;33.60;50.90;;;;;;7364993;19;20027;-63
2023/07/08 10:36:09;;;;;;;8.05;3.58;;;33.80;50.20;;;;;;7363992;19;20018;-64
2023/07/08 10:39:06;;;;;;;6.07;4.90;;;33.60;50.80;;;;;;7370484;19;20022;-61
2023/07/08 10:42:23;;;;;;;6.63;3.45;;;33.90;50.60;;;;;;7370243;19;20019;-60
2023/07/08 10:45:00;;;;;;;6.50;4.38;;;33.90;50.00;;;;;;7371216;19;20023;-64
2023/07/08 10:47:55;;;;;;;8.05;3.50;;;34.10;49.20;;;;;;7374715;19;20022;-60
2023/07/08 10:50:34;;;;;;;4.88;3.35;;;34.10;49.00;;;;;;7382655;19;20018;-61
2023/07/08 10:53:09;;;;;;;6.75;3.50;;;34.10;48.70;;;;;;7381231;19;20014;-60
2023/07/08 10:55:57;;;;;;;4.03;2.90;;;34.10;49.00;;;;;;7378287;19;20090;-60
2023/07/08 10:59:13;;;;;;;5.65;3.08;;;34.50;49.40;;;;;;7381861;19;20027;-61
2023/07/08 11:01:49;;;;;;;6.82;3.25;;;34.40;47.80;;;;;;7379870;19;20031;-60
2023/07/08 11:04:21;;;;;;;7.03;3.10;;;34.30;48.50;;;;;;7376788;19;20022;-64
2023/07/08 11:07:10;;;;;;;4.90;3.00;;;34.10;47.60;;;;;;7375038;19;20892;-63
2023/07/08 11:09:50;;;;;;;5.72;4.00;;;34.10;47.40;;;;;;7383364;19;20035;-64
2023/07/08 11:12:29;;;;;;;7.00;5.57;;;34.20;45.80;;;;;;7380057;19;20018;-61
2023/07/08 11:15:11;;;;;;;7.93;5.88;;;33.90;45.40;;;;;;7385793;19;20470;-61
2023/07/08 11:17:48;;;;;;;11.90;10.70;;;34.10;46.20;;;;;;7380282;19;20018;-60
2023/07/08 11:20:20;;;;;;;15.10;13.68;;;34.30;47.80;;;;;;7378193;19;20415;-64
2023/07/08 11:22:56;;;;;;;6.95;3.83;;;34.40;47.20;;;;;;7377986;19;20030;-63
2023/07/08 11:25:26;;;;;;;8.50;7.57;;;34.60;45.80;;;;;;7379255;19;20022;-65
2023/07/08 11:27:56;;;;;;;4.95;3.80;;;34.60;45.60;;;;;;7378598;19;20106;-64
2023/07/08 11:30:27;;;;;;;6.10;4.03;;;34.70;45.70;;;;;;7380244;19;20018;-61
2023/07/08 11:33:04;;;;;;;5.90;3.88;;;34.60;45.50;;;;;;7370157;19;20030;-61
2023/07/08 11:35:49;;;;;;;6.40;3.67;;;34.50;45.50;;;;;;7375967;19;20025;-61
2023/07/08 11:38:19;;;;;;;6.90;4.15;;;34.60;46.60;;;;;;7376113;19;20141;-62
2023/07/08 11:40:59;;;;;;;4.80;3.08;;;35.00;45.90;;;;;;7377797;19;20082;-61
2023/07/08 11:43:33;;;;;;;4.65;3.38;;;35.30;45.10;;;;;;7374710;19;20034;-61
2023/07/08 11:46:06;;;;;;;5.30;3.65;;;35.20;44.70;;;;;;7379322;19;20018;-62
2023/07/08 11:48:42;;;;;;;6.53;4.60;;;35.30;44.60;;;;;;7377471;19;20053;-63
2023/07/08 11:51:09;;;;;;;7.50;6.50;;;35.60;45.50;;;;;;7380076;19;20026;-61
2023/07/08 11:53:45;;;;;;;8.50;4.97;;;35.60;44.60;;;;;;7376851;19;20849;-61
2023/07/08 11:56:21;;;;;;;7.93;6.20;;;35.40;43.00;;;;;;7375503;19;20748;-62
2023/07/08 11:58:47;;;;;;;6.63;3.65;;;35.50;43.30;;;;;;7378337;19;20014;-61
2023/07/08 12:01:13;;;;;;;6.22;4.80;;;35.40;43.30;;;;;;7374708;19;20496;-60
2023/07/08 12:03:49;;;;;;;8.35;7.32;;;35.40;43.00;;;;;;7380989;19;20019;-61
2023/07/08 12:06:27;;;;;;;6.68;5.03;;;35.40;43.30;;;;;;7379790;19;20045;-60
2023/07/08 12:08:56;;;;;;;7.78;5.10;;;35.40;42.30;;;;;;7373917;19;20458;-61
2023/07/08 12:11:30;;;;;;;5.47;3.65;;;35.50;42.80;;;;;;7380554;19;20043;-69
2023/07/08 12:14:00;;;;;;;6.25;4.15;;;35.40;44.40;;;;;;7376538;19;20045;-62
2023/07/08 12:16:28;;;;;;;5.33;3.93;;;35.10;42.80;;;;;;7381351;19;20022;-62
2023/07/08 12:18:57;;;;;;;5.65;4.03;;;35.00;42.60;;;;;;7378676;19;20818;-62
2023/07/08 12:21:27;;;;;;;6.97;4.25;;;35.20;43.80;;;;;;7377752;19;20038;-62
2023/07/08 12:23:54;;;;;;;7.45;4.45;;;35.40;44.40;;;;;;7377709;19;20014;-62
2023/07/08 12:26:22;;;;;;;6.88;4.75;;;35.60;44.30;;;;;;7378159;19;20022;-62
2023/07/08 12:28:51;;;;;;;12.13;4.90;;;35.50;42.60;;;;;;7381996;19;20529;-62
2023/07/08 12:31:23;;;;;;;7.43;4.70;;;35.70;41.30;;;;;;7380874;19;20028;-66
2023/07/08 12:33:50;;;;;;;7.63;4.47;;;35.80;41.50;;;;;;7377776;19;20801;-66
2023/07/08 12:36:28;;;;;;;6.88;4.65;;;35.70;41.50;;;;;;7376415;19;20081;-61
2023/07/08 12:38:57;;;;;;;32.97;30.00;;;35.90;41.40;;;;;;7381653;19;20011;-60
2023/07/08 12:41:28;;;;;;;8.95;5.57;;;36.10;41.70;;;;;;7377106;19;20026;-62
2023/07/08 12:43:55;;;;;;;23.05;20.92;;;36.30;40.70;;;;;;7379622;19;20029;-66
2023/07/08 12:46:24;;;;;;;6.93;4.70;;;36.30;41.20;;;;;;7372106;19;20011;-66
2023/07/08 12:48:51;;;;;;;8.68;6.65;;;36.50;41.20;;;;;;7376344;19;20456;-66
2023/07/08 12:51:21;;;;;;;9.57;7.38;;;36.70;42.00;;;;;;7382450;19;20383;-67
2023/07/08 12:53:48;;;;;;;12.48;10.90;;;36.60;41.40;;;;;;7377594;19;20092;-61
2023/07/08 12:56:16;;;;;;;10.68;5.78;;;36.90;40.60;;;;;;7380514;19;20656;-65
2023/07/08 12:58:46;;;;;;;7.60;5.50;;;36.90;40.10;;;;;;7380477;19;20086;-66
2023/07/08 13:01:25;;;;;;;18.60;16.83;;;36.90;39.90;;;;;;7378409;19;20029;-70